sensor_id;sensor_type;location;lat;lon;timestamp;pressure;altitude;pressure_sealevel;temperature;humidity
58662;BME280;44432;49.786;22.760;2023-07-29T00:00:02;98718.13;;;15.95;80.30
58662;BME280;44432;49.786;22.760;2023-07-29T00:02:33;98716.05;;;15.93;80.43
58662;BME280;44432;49.786;22.760;2023-07-29T00:05:04;98715.73;;;15.92;80.45
58662;BME280;44432;49.786;22.760;2023-07-29T00:07:35;98715.40;;;15.90;80.56
58662;BME280;44432;49.786;22.760;2023-07-29T00:10:07;98719.61;;;15.91;80.65
58662;BME280;44432;49.786;22.760;2023-07-29T00:12:38;98717.90;;;15.91;80.71
58662;BME280;44432;49.786;22.760;2023-07-29T00:15:09;98719.61;;;15.91;80.74
58662;BME280;44432;49.786;22.760;2023-07-29T00:17:40;98723.64;;;15.89;80.86
58662;BME280;44432;49.786;22.760;2023-07-29T00:20:11;98722.21;;;15.88;80.83
58662;BME280;44432;49.786;22.760;2023-07-29T00:22:41;98724.60;;;15.87;80.88
58662;BME280;44432;49.786;22.760;2023-07-29T00:25:12;98727.64;;;15.87;80.97
58662;BME280;44432;49.786;22.760;2023-07-29T00:27:43;98728.00;;;15.86;80.90
58662;BME280;44432;49.786;22.760;2023-07-29T00:30:14;98724.37;;;15.83;80.91
58662;BME280;44432;49.786;22.760;2023-07-29T00:32:44;98723.08;;;15.81;80.96
58662;BME280;44432;49.786;22.760;2023-07-29T00:35:15;98723.65;;;15.78;81.07
58662;BME280;44432;49.786;22.760;2023-07-29T00:37:45;98726.89;;;15.75;81.06
58662;BME280;44432;49.786;22.760;2023-07-29T00:40:20;98722.61;;;15.71;81.15
58662;BME280;44432;49.786;22.760;2023-07-29T00:42:51;98722.92;;;15.68;81.24
58662;BME280;44432;49.786;22.760;2023-07-29T00:45:22;98719.06;;;15.65;81.44
58662;BME280;44432;49.786;22.760;2023-07-29T00:47:54;98719.52;;;15.63;81.54
58662;BME280;44432;49.786;22.760;2023-07-29T00:50:24;98718.68;;;15.61;81.44
58662;BME280;44432;49.786;22.760;2023-07-29T00:52:57;98721.14;;;15.59;81.70
58662;BME280;44432;49.786;22.760;2023-07-29T00:55:29;98720.23;;;15.58;81.75
58662;BME280;44432;49.786;22.760;2023-07-29T00:57:59;98720.53;;;15.56;81.84
58662;BME280;44432;49.786;22.760;2023-07-29T01:00:30;98726.24;;;15.58;82.04
58662;BME280;44432;49.786;22.760;2023-07-29T01:03:01;98726.98;;;15.58;82.09
58662;BME280;44432;49.786;22.760;2023-07-29T01:05:38;98724.33;;;15.60;82.35
58662;BME280;44432;49.786;22.760;2023-07-29T01:08:15;98726.25;;;15.66;82.52
58662;BME280;44432;49.786;22.760;2023-07-29T01:10:57;98722.33;;;15.69;82.28
58662;BME280;44432;49.786;22.760;2023-07-29T01:13:33;98726.27;;;15.69;82.13
58662;BME280;44432;49.786;22.760;2023-07-29T01:16:11;98729.25;;;15.68;82.13
58662;BME280;44432;49.786;22.760;2023-07-29T01:18:47;98726.09;;;15.64;82.02
58662;BME280;44432;49.786;22.760;2023-07-29T01:21:18;98729.11;;;15.62;81.99
58662;BME280;44432;49.786;22.760;2023-07-29T01:23:53;98728.23;;;15.59;82.00
58662;BME280;44432;49.786;22.760;2023-07-29T01:26:28;98728.68;;;15.57;82.20
58662;BME280;44432;49.786;22.760;2023-07-29T01:28:59;98727.48;;;15.56;82.17
58662;BME280;44432;49.786;22.760;2023-07-29T01:31:34;98725.71;;;15.54;82.21
58662;BME280;44432;49.786;22.760;2023-07-29T01:34:13;98723.41;;;15.52;82.23
58662;BME280;44432;49.786;22.760;2023-07-29T01:36:44;98719.52;;;15.50;82.26
58662;BME280;44432;49.786;22.760;2023-07-29T01:39:17;98722.64;;;15.47;82.29
58662;BME280;44432;49.786;22.760;2023-07-29T01:41:51;98729.71;;;15.47;82.47
58662;BME280;44432;49.786;22.760;2023-07-29T01:44:22;98731.46;;;15.45;82.51
58662;BME280;44432;49.786;22.760;2023-07-29T01:46:55;98729.86;;;15.44;82.57
58662;BME280;44432;49.786;22.760;2023-07-29T01:49:26;98729.15;;;15.41;82.65
58662;BME280;44432;49.786;22.760;2023-07-29T01:51:56;98731.20;;;15.38;82.80
58662;BME280;44432;49.786;22.760;2023-07-29T01:54:27;98729.70;;;15.36;82.78
58662;BME280;44432;49.786;22.760;2023-07-29T01:56:57;98729.70;;;15.34;82.99
58662;BME280;44432;49.786;22.760;2023-07-29T01:59:28;98732.28;;;15.31;83.05
58662;BME280;44432;49.786;22.760;2023-07-29T02:01:58;98734.12;;;15.28;83.07
58662;BME280;44432;49.786;22.760;2023-07-29T02:04:29;98735.70;;;15.25;83.24
58662;BME280;44432;49.786;22.760;2023-07-29T02:06:59;98738.39;;;15.22;83.34
58662;BME280;44432;49.786;22.760;2023-07-29T02:09:30;98736.95;;;15.20;83.48
58662;BME280;44432;49.786;22.760;2023-07-29T02:12:01;98737.95;;;15.19;83.55
58662;BME280;44432;49.786;22.760;2023-07-29T02:14:32;98740.90;;;15.17;83.69
58662;BME280;44432;49.786;22.760;2023-07-29T02:17:02;98744.03;;;15.15;83.71
58662;BME280;44432;49.786;22.760;2023-07-29T02:19:33;98743.59;;;15.14;83.86
58662;BME280;44432;49.786;22.760;2023-07-29T02:22:04;98745.65;;;15.12;83.92
58662;BME280;44432;49.786;22.760;2023-07-29T02:24:34;98750.59;;;15.11;83.92
58662;BME280;44432;49.786;22.760;2023-07-29T02:27:06;98756.01;;;15.10;84.02
58662;BME280;44432;49.786;22.760;2023-07-29T02:29:36;98756.68;;;15.08;83.94
58662;BME280;44432;49.786;22.760;2023-07-29T02:32:07;98761.39;;;15.06;83.95
58662;BME280;44432;49.786;22.760;2023-07-29T02:34:38;98766.85;;;15.04;84.03
58662;BME280;44432;49.786;22.760;2023-07-29T02:37:09;98764.67;;;15.02;84.15
58662;BME280;44432;49.786;22.760;2023-07-29T02:39:39;98770.02;;;15.00;84.20
58662;BME280;44432;49.786;22.760;2023-07-29T02:42:10;98773.83;;;14.98;84.28
58662;BME280;44432;49.786;22.760;2023-07-29T02:44:41;98772.27;;;14.96;84.33
58662;BME280;44432;49.786;22.760;2023-07-29T02:47:13;98772.13;;;14.93;84.45
58662;BME280;44432;49.786;22.760;2023-07-29T02:49:44;98775.00;;;14.92;84.49
58662;BME280;44432;49.786;22.760;2023-07-29T02:52:15;98778.07;;;14.91;84.67
58662;BME280;44432;49.786;22.760;2023-07-29T02:54:45;98776.82;;;14.88;84.70
58662;BME280;44432;49.786;22.760;2023-07-29T02:57:16;98782.08;;;14.88;84.78
58662;BME280;44432;49.786;22.760;2023-07-29T02:59:48;98783.83;;;14.87;84.91
58662;BME280;44432;49.786;22.760;2023-07-29T03:02:18;98783.35;;;14.87;84.98
58662;BME280;44432;49.786;22.760;2023-07-29T03:04:50;98786.98;;;14.87;85.14
58662;BME280;44432;49.786;22.760;2023-07-29T03:07:21;98784.38;;;14.89;85.29
58662;BME280;44432;49.786;22.760;2023-07-29T03:09:51;98786.27;;;14.91;85.35
58662;BME280;44432;49.786;22.760;2023-07-29T03:12:22;98786.00;;;14.92;85.41
58662;BME280;44432;49.786;22.760;2023-07-29T03:14:52;98786.92;;;14.94;85.42
58662;BME280;44432;49.786;22.760;2023-07-29T03:17:23;98785.08;;;14.95;85.37
58662;BME280;44432;49.786;22.760;2023-07-29T03:19:53;98788.70;;;14.97;85.38
58662;BME280;44432;49.786;22.760;2023-07-29T03:22:24;98788.56;;;14.99;85.43
58662;BME280;44432;49.786;22.760;2023-07-29T03:24:54;98792.56;;;15.00;85.45
58662;BME280;44432;49.786;22.760;2023-07-29T03:27:25;98795.29;;;15.02;85.45
58662;BME280;44432;49.786;22.760;2023-07-29T03:29:55;98798.17;;;15.04;85.53
58662;BME280;44432;49.786;22.760;2023-07-29T03:32:26;98800.65;;;15.06;85.53
58662;BME280;44432;49.786;22.760;2023-07-29T03:34:56;98801.04;;;15.09;85.57
58662;BME280;44432;49.786;22.760;2023-07-29T03:37:27;98804.36;;;15.13;85.63
58662;BME280;44432;49.786;22.760;2023-07-29T03:39:58;98803.70;;;15.16;85.53
58662;BME280;44432;49.786;22.760;2023-07-29T03:42:28;98804.58;;;15.19;85.55
58662;BME280;44432;49.786;22.760;2023-07-29T03:44:59;98804.34;;;15.22;85.52
58662;BME280;44432;49.786;22.760;2023-07-29T03:47:30;98801.27;;;15.25;85.44
58662;BME280;44432;49.786;22.760;2023-07-29T03:50:01;98797.58;;;15.28;85.38
58662;BME280;44432;49.786;22.760;2023-07-29T03:52:32;98802.48;;;15.30;85.39
58662;BME280;44432;49.786;22.760;2023-07-29T03:55:03;98808.36;;;15.32;85.43
58662;BME280;44432;49.786;22.760;2023-07-29T03:57:33;98805.02;;;15.35;85.39
58662;BME280;44432;49.786;22.760;2023-07-29T04:00:05;98801.48;;;15.39;85.43
58662;BME280;44432;49.786;22.760;2023-07-29T04:02:36;98798.60;;;15.45;85.39
58662;BME280;44432;49.786;22.760;2023-07-29T04:05:07;98797.64;;;15.52;85.35
58662;BME280;44432;49.786;22.760;2023-07-29T04:07:38;98800.16;;;15.59;85.39
58662;BME280;44432;49.786;22.760;2023-07-29T04:10:10;98799.23;;;15.67;85.32
58662;BME280;44432;49.786;22.760;2023-07-29T04:12:40;98801.26;;;15.76;85.26
58662;BME280;44432;49.786;22.760;2023-07-29T04:15:11;98801.77;;;15.83;85.17
58662;BME280;44432;49.786;22.760;2023-07-29T04:17:42;98804.00;;;15.90;84.98
58662;BME280;44432;49.786;22.760;2023-07-29T04:20:13;98803.77;;;15.95;84.94
58662;BME280;44432;49.786;22.760;2023-07-29T04:22:43;98804.27;;;16.00;84.88
58662;BME280;44432;49.786;22.760;2023-07-29T04:25:14;98805.30;;;16.08;84.86
58662;BME280;44432;49.786;22.760;2023-07-29T04:27:44;98805.98;;;16.15;84.76
58662;BME280;44432;49.786;22.760;2023-07-29T04:30:15;98807.29;;;16.23;84.70
58662;BME280;44432;49.786;22.760;2023-07-29T04:32:45;98803.05;;;16.29;84.69
58662;BME280;44432;49.786;22.760;2023-07-29T04:35:17;98809.05;;;16.40;84.55
58662;BME280;44432;49.786;22.760;2023-07-29T04:37:48;98807.85;;;16.48;84.36
58662;BME280;44432;49.786;22.760;2023-07-29T04:40:18;98807.40;;;16.54;84.34
58662;BME280;44432;49.786;22.760;2023-07-29T04:42:49;98806.90;;;16.64;84.28
58662;BME280;44432;49.786;22.760;2023-07-29T04:45:20;98807.82;;;16.74;84.19
58662;BME280;44432;49.786;22.760;2023-07-29T04:47:50;98811.41;;;16.83;84.24
58662;BME280;44432;49.786;22.760;2023-07-29T04:50:21;98809.72;;;16.91;84.18
58662;BME280;44432;49.786;22.760;2023-07-29T04:52:51;98811.86;;;17.00;84.09
58662;BME280;44432;49.786;22.760;2023-07-29T04:55:22;98811.07;;;17.10;83.97
58662;BME280;44432;49.786;22.760;2023-07-29T04:57:53;98814.85;;;17.20;83.92
58662;BME280;44432;49.786;22.760;2023-07-29T05:00:23;98813.36;;;17.30;83.81
58662;BME280;44432;49.786;22.760;2023-07-29T05:02:54;98813.15;;;17.42;83.87
58662;BME280;44432;49.786;22.760;2023-07-29T05:05:25;98808.33;;;17.52;83.67
58662;BME280;44432;49.786;22.760;2023-07-29T05:07:55;98806.61;;;17.61;83.39
58662;BME280;44432;49.786;22.760;2023-07-29T05:10:26;98810.27;;;17.72;83.40
58662;BME280;44432;49.786;22.760;2023-07-29T05:12:56;98811.27;;;17.85;83.23
58662;BME280;44432;49.786;22.760;2023-07-29T05:15:27;98813.06;;;17.96;83.13
58662;BME280;44432;49.786;22.760;2023-07-29T05:17:58;98814.73;;;18.08;82.90
58662;BME280;44432;49.786;22.760;2023-07-29T05:20:28;98813.67;;;18.20;82.71
58662;BME280;44432;49.786;22.760;2023-07-29T05:22:59;98811.11;;;18.33;82.50
58662;BME280;44432;49.786;22.760;2023-07-29T05:25:30;98811.59;;;18.44;82.23
58662;BME280;44432;49.786;22.760;2023-07-29T05:28:00;98811.31;;;18.57;82.03
58662;BME280;44432;49.786;22.760;2023-07-29T05:30:31;98812.27;;;18.71;81.74
58662;BME280;44432;49.786;22.760;2023-07-29T05:33:03;98812.59;;;18.85;81.55
58662;BME280;44432;49.786;22.760;2023-07-29T05:35:34;98810.45;;;19.01;81.22
58662;BME280;44432;49.786;22.760;2023-07-29T05:38:04;98813.43;;;19.17;80.76
58662;BME280;44432;49.786;22.760;2023-07-29T05:40:35;98820.26;;;19.33;80.26
58662;BME280;44432;49.786;22.760;2023-07-29T05:43:07;98825.35;;;19.46;79.53
58662;BME280;44432;49.786;22.760;2023-07-29T05:45:37;98824.73;;;19.57;79.01
58662;BME280;44432;49.786;22.760;2023-07-29T05:48:08;98827.80;;;19.73;78.64
58662;BME280;44432;49.786;22.760;2023-07-29T05:50:38;98823.56;;;19.86;78.39
58662;BME280;44432;49.786;22.760;2023-07-29T05:53:09;98823.38;;;20.00;78.03
58662;BME280;44432;49.786;22.760;2023-07-29T05:55:40;98822.25;;;20.14;77.60
58662;BME280;44432;49.786;22.760;2023-07-29T05:58:10;98823.67;;;20.25;77.22
58662;BME280;44432;49.786;22.760;2023-07-29T06:00:41;98825.79;;;20.38;77.08
58662;BME280;44432;49.786;22.760;2023-07-29T06:03:11;98824.37;;;20.49;76.58
58662;BME280;44432;49.786;22.760;2023-07-29T06:05:42;98828.30;;;20.61;76.17
58662;BME280;44432;49.786;22.760;2023-07-29T06:08:13;98823.80;;;20.71;75.24
58662;BME280;44432;49.786;22.760;2023-07-29T06:10:43;98830.45;;;20.78;74.68
58662;BME280;44432;49.786;22.760;2023-07-29T06:13:14;98827.91;;;20.83;74.28
58662;BME280;44432;49.786;22.760;2023-07-29T06:15:44;98829.27;;;20.92;73.86
58662;BME280;44432;49.786;22.760;2023-07-29T06:18:15;98829.28;;;20.99;73.21
58662;BME280;44432;49.786;22.760;2023-07-29T06:20:45;98831.27;;;21.06;72.95
58662;BME280;44432;49.786;22.760;2023-07-29T06:23:16;98834.74;;;21.14;72.53
58662;BME280;44432;49.786;22.760;2023-07-29T06:25:47;98837.70;;;21.22;71.87
58662;BME280;44432;49.786;22.760;2023-07-29T06:28:17;98835.91;;;21.31;71.52
58662;BME280;44432;49.786;22.760;2023-07-29T06:30:48;98832.18;;;21.39;71.13
58662;BME280;44432;49.786;22.760;2023-07-29T06:33:18;98836.60;;;21.47;70.95
58662;BME280;44432;49.786;22.760;2023-07-29T06:35:49;98841.69;;;21.54;70.37
58662;BME280;44432;49.786;22.760;2023-07-29T06:38:20;98842.03;;;21.63;70.47
58662;BME280;44432;49.786;22.760;2023-07-29T06:40:51;98841.76;;;21.72;70.11
58662;BME280;44432;49.786;22.760;2023-07-29T06:43:22;98843.36;;;21.81;69.73
58662;BME280;44432;49.786;22.760;2023-07-29T06:45:52;98842.98;;;21.92;69.29
58662;BME280;44432;49.786;22.760;2023-07-29T06:48:24;98839.43;;;22.02;69.12
58662;BME280;44432;49.786;22.760;2023-07-29T06:50:54;98837.45;;;22.14;69.15
58662;BME280;44432;49.786;22.760;2023-07-29T06:53:29;98837.91;;;22.28;68.80
58662;BME280;44432;49.786;22.760;2023-07-29T06:56:00;98837.59;;;22.39;68.04
58662;BME280;44432;49.786;22.760;2023-07-29T06:58:31;98836.45;;;22.47;67.86
58662;BME280;44432;49.786;22.760;2023-07-29T07:01:01;98831.27;;;22.55;67.44
58662;BME280;44432;49.786;22.760;2023-07-29T07:03:32;98831.44;;;22.62;67.12
58662;BME280;44432;49.786;22.760;2023-07-29T07:06:03;98830.50;;;22.71;66.96
58662;BME280;44432;49.786;22.760;2023-07-29T07:08:34;98828.37;;;22.78;66.52
58662;BME280;44432;49.786;22.760;2023-07-29T07:11:06;98832.27;;;22.86;66.36
58662;BME280;44432;49.786;22.760;2023-07-29T07:13:37;98831.10;;;22.95;65.91
58662;BME280;44432;49.786;22.760;2023-07-29T07:16:07;98834.85;;;23.00;65.78
58662;BME280;44432;49.786;22.760;2023-07-29T07:18:38;98837.41;;;23.08;65.30
58662;BME280;44432;49.786;22.760;2023-07-29T07:21:08;98838.31;;;23.13;64.85
58662;BME280;44432;49.786;22.760;2023-07-29T07:23:39;98839.70;;;23.21;64.62
58662;BME280;44432;49.786;22.760;2023-07-29T07:26:10;98845.27;;;23.29;64.67
58662;BME280;44432;49.786;22.760;2023-07-29T07:28:41;98848.30;;;23.37;64.31
58662;BME280;44432;49.786;22.760;2023-07-29T07:31:11;98845.55;;;23.43;63.93
58662;BME280;44432;49.786;22.760;2023-07-29T07:33:42;98846.19;;;23.47;63.34
58662;BME280;44432;49.786;22.760;2023-07-29T07:36:12;98842.65;;;23.50;63.11
58662;BME280;44432;49.786;22.760;2023-07-29T07:38:43;98843.42;;;23.54;63.21
58662;BME280;44432;49.786;22.760;2023-07-29T07:41:13;98844.69;;;23.62;62.97
58662;BME280;44432;49.786;22.760;2023-07-29T07:43:44;98846.47;;;23.69;62.58
58662;BME280;44432;49.786;22.760;2023-07-29T07:46:15;98844.56;;;23.73;62.35
58662;BME280;44432;49.786;22.760;2023-07-29T07:48:45;98845.68;;;23.81;62.62
58662;BME280;44432;49.786;22.760;2023-07-29T07:51:16;98845.11;;;23.93;62.35
58662;BME280;44432;49.786;22.760;2023-07-29T07:53:47;98841.31;;;24.05;62.31
58662;BME280;44432;49.786;22.760;2023-07-29T07:56:17;98844.69;;;24.16;61.67
58662;BME280;44432;49.786;22.760;2023-07-29T07:58:48;98841.88;;;24.32;61.75
58662;BME280;44432;49.786;22.760;2023-07-29T08:01:19;98845.55;;;24.53;60.88
58662;BME280;44432;49.786;22.760;2023-07-29T08:03:49;98842.73;;;24.72;60.55
58662;BME280;44432;49.786;22.760;2023-07-29T08:06:20;98845.13;;;24.91;60.27
58662;BME280;44432;49.786;22.760;2023-07-29T08:08:51;98839.95;;;25.10;59.62
58662;BME280;44432;49.786;22.760;2023-07-29T08:11:22;98839.55;;;25.30;58.98
58662;BME280;44432;49.786;22.760;2023-07-29T08:13:52;98839.66;;;25.47;57.88
58662;BME280;44432;49.786;22.760;2023-07-29T08:16:23;98837.20;;;25.56;57.57
58662;BME280;44432;49.786;22.760;2023-07-29T08:18:54;98839.51;;;25.61;57.39
58662;BME280;44432;49.786;22.760;2023-07-29T08:21:26;98840.21;;;25.68;57.26
58662;BME280;44432;49.786;22.760;2023-07-29T08:23:56;98839.27;;;25.76;57.20
58662;BME280;44432;49.786;22.760;2023-07-29T08:26:27;98839.20;;;25.87;56.59
58662;BME280;44432;49.786;22.760;2023-07-29T08:28:57;98841.73;;;25.90;56.16
58662;BME280;44432;49.786;22.760;2023-07-29T08:31:28;98842.98;;;25.90;56.05
58662;BME280;44432;49.786;22.760;2023-07-29T08:34:00;98837.44;;;25.82;55.43
58662;BME280;44432;49.786;22.760;2023-07-29T08:36:30;98833.65;;;25.67;55.26
58662;BME280;44432;49.786;22.760;2023-07-29T08:39:01;98831.27;;;25.64;55.82
58662;BME280;44432;49.786;22.760;2023-07-29T08:41:35;98831.96;;;25.72;55.96
58662;BME280;44432;49.786;22.760;2023-07-29T08:44:12;98837.06;;;25.89;56.03
58662;BME280;44432;49.786;22.760;2023-07-29T08:46:43;98840.67;;;26.09;55.82
58662;BME280;44432;49.786;22.760;2023-07-29T08:49:14;98836.84;;;26.27;55.14
58662;BME280;44432;49.786;22.760;2023-07-29T08:51:49;98837.96;;;26.43;54.90
58662;BME280;44432;49.786;22.760;2023-07-29T08:54:20;98835.34;;;26.53;54.32
58662;BME280;44432;49.786;22.760;2023-07-29T08:56:51;98836.27;;;26.53;54.07
58662;BME280;44432;49.786;22.760;2023-07-29T08:59:22;98829.53;;;26.51;54.09
58662;BME280;44432;49.786;22.760;2023-07-29T09:01:53;98828.65;;;26.54;53.54
58662;BME280;44432;49.786;22.760;2023-07-29T09:04:26;98831.85;;;26.51;53.51
58662;BME280;44432;49.786;22.760;2023-07-29T09:06:59;98829.73;;;26.54;54.11
58662;BME280;44432;49.786;22.760;2023-07-29T09:09:30;98827.34;;;26.60;54.14
58662;BME280;44432;49.786;22.760;2023-07-29T09:12:01;98824.27;;;26.65;54.04
58662;BME280;44432;49.786;22.760;2023-07-29T09:14:31;98819.17;;;26.61;53.13
58662;BME280;44432;49.786;22.760;2023-07-29T09:17:02;98825.63;;;26.52;53.03
58662;BME280;44432;49.786;22.760;2023-07-29T09:19:35;98823.83;;;26.47;53.10
58662;BME280;44432;49.786;22.760;2023-07-29T09:22:07;98822.27;;;26.45;52.87
58662;BME280;44432;49.786;22.760;2023-07-29T09:24:47;98824.36;;;26.43;52.58
58662;BME280;44432;49.786;22.760;2023-07-29T09:27:27;98813.03;;;26.46;53.00
58662;BME280;44432;49.786;22.760;2023-07-29T09:30:00;98818.04;;;26.55;52.53
58662;BME280;44432;49.786;22.760;2023-07-29T09:32:32;98813.08;;;26.63;52.41
58662;BME280;44432;49.786;22.760;2023-07-29T09:35:03;98813.42;;;26.68;51.91
58662;BME280;44432;49.786;22.760;2023-07-29T09:37:40;98813.94;;;26.68;52.05
58662;BME280;44432;49.786;22.760;2023-07-29T09:40:15;98820.15;;;26.77;52.15
58662;BME280;44432;49.786;22.760;2023-07-29T09:42:54;98818.59;;;26.91;52.09
58662;BME280;44432;49.786;22.760;2023-07-29T09:45:26;98819.77;;;27.03;51.77
58662;BME280;44432;49.786;22.760;2023-07-29T09:47:58;98817.34;;;27.16;51.24
58662;BME280;44432;49.786;22.760;2023-07-29T09:50:29;98814.46;;;27.29;51.41
58662;BME280;44432;49.786;22.760;2023-07-29T09:53:01;98816.05;;;27.44;51.31
58662;BME280;44432;49.786;22.760;2023-07-29T09:55:34;98815.27;;;27.53;50.60
58662;BME280;44432;49.786;22.760;2023-07-29T09:58:05;98810.63;;;27.57;50.53
58662;BME280;44432;49.786;22.760;2023-07-29T10:00:37;98808.61;;;27.68;50.36
58662;BME280;44432;49.786;22.760;2023-07-29T10:03:08;98811.98;;;27.71;49.66
58662;BME280;44432;49.786;22.760;2023-07-29T10:05:39;98803.71;;;27.77;50.11
58662;BME280;44432;49.786;22.760;2023-07-29T10:08:11;98803.01;;;27.90;49.98
58662;BME280;44432;49.786;22.760;2023-07-29T10:10:42;98795.29;;;28.06;49.86
58662;BME280;44432;49.786;22.760;2023-07-29T10:13:13;98801.08;;;28.30;49.21
58662;BME280;44432;49.786;22.760;2023-07-29T10:15:45;98802.29;;;28.39;48.13
58662;BME280;44432;49.786;22.760;2023-07-29T10:18:16;98794.84;;;28.54;48.39
58662;BME280;44432;49.786;22.760;2023-07-29T10:20:50;98799.17;;;28.68;48.23
58662;BME280;44432;49.786;22.760;2023-07-29T10:23:22;98800.27;;;28.78;47.04
58662;BME280;44432;49.786;22.760;2023-07-29T10:25:57;98798.16;;;28.75;46.83
58662;BME280;44432;49.786;22.760;2023-07-29T10:28:32;98799.33;;;28.85;46.99
58662;BME280;44432;49.786;22.760;2023-07-29T10:31:05;98798.89;;;28.91;46.55
58662;BME280;44432;49.786;22.760;2023-07-29T10:33:36;98795.11;;;28.92;46.38
58662;BME280;44432;49.786;22.760;2023-07-29T10:36:08;98790.16;;;28.93;46.44
58662;BME280;44432;49.786;22.760;2023-07-29T10:38:39;98790.63;;;28.90;46.34
58662;BME280;44432;49.786;22.760;2023-07-29T10:41:11;98787.94;;;28.78;46.08
58662;BME280;44432;49.786;22.760;2023-07-29T10:43:41;98785.00;;;28.55;46.55
58662;BME280;44432;49.786;22.760;2023-07-29T10:46:19;98784.65;;;28.46;47.20
58662;BME280;44432;49.786;22.760;2023-07-29T10:48:55;98775.40;;;28.35;47.32
58662;BME280;44432;49.786;22.760;2023-07-29T10:51:28;98769.27;;;28.27;47.48
58662;BME280;44432;49.786;22.760;2023-07-29T10:54:08;98769.31;;;28.17;47.57
58662;BME280;44432;49.786;22.760;2023-07-29T10:56:42;98773.02;;;28.11;47.43
58662;BME280;44432;49.786;22.760;2023-07-29T10:59:33;98772.05;;;28.07;47.37
58662;BME280;44432;49.786;22.760;2023-07-29T11:02:15;98769.74;;;27.97;47.56
58662;BME280;44432;49.786;22.760;2023-07-29T11:04:52;98772.42;;;27.94;47.48
58662;BME280;44432;49.786;22.760;2023-07-29T11:07:26;98774.70;;;28.00;47.38
58662;BME280;44432;49.786;22.760;2023-07-29T11:10:02;98776.33;;;28.08;47.45
58662;BME280;44432;49.786;22.760;2023-07-29T11:12:37;98770.86;;;28.14;47.33
58662;BME280;44432;49.786;22.760;2023-07-29T11:15:24;98765.61;;;28.24;47.34
58662;BME280;44432;49.786;22.760;2023-07-29T11:17:56;98766.84;;;28.37;47.47
58662;BME280;44432;49.786;22.760;2023-07-29T11:20:28;98760.20;;;28.53;47.07
58662;BME280;44432;49.786;22.760;2023-07-29T11:23:01;98752.02;;;28.52;46.59
58662;BME280;44432;49.786;22.760;2023-07-29T11:25:32;98753.76;;;28.64;47.05
58662;BME280;44432;49.786;22.760;2023-07-29T11:28:05;98746.54;;;28.88;47.09
58662;BME280;44432;49.786;22.760;2023-07-29T11:30:40;98744.61;;;29.15;46.28
58662;BME280;44432;49.786;22.760;2023-07-29T11:33:16;98741.84;;;29.25;44.97
58662;BME280;44432;49.786;22.760;2023-07-29T11:35:47;98741.88;;;29.35;45.00
58662;BME280;44432;49.786;22.760;2023-07-29T11:38:19;98743.44;;;29.47;44.48
58662;BME280;44432;49.786;22.760;2023-07-29T11:40:58;98740.02;;;29.56;43.89
58662;BME280;44432;49.786;22.760;2023-07-29T11:43:29;98737.18;;;29.64;43.25
58662;BME280;44432;49.786;22.760;2023-07-29T11:46:02;98736.14;;;29.66;43.15
58662;BME280;44432;49.786;22.760;2023-07-29T11:48:33;98736.07;;;29.63;42.81
58662;BME280;44432;49.786;22.760;2023-07-29T11:51:04;98733.44;;;29.57;42.65
58662;BME280;44432;49.786;22.760;2023-07-29T11:53:34;98733.34;;;29.44;43.06
58662;BME280;44432;49.786;22.760;2023-07-29T11:56:05;98731.50;;;29.28;43.15
58662;BME280;44432;49.786;22.760;2023-07-29T11:58:36;98731.80;;;29.08;43.50
58662;BME280;44432;49.786;22.760;2023-07-29T12:01:07;98729.17;;;29.00;43.74
58662;BME280;44432;49.786;22.760;2023-07-29T12:03:38;98733.27;;;28.83;43.96
58662;BME280;44432;49.786;22.760;2023-07-29T12:06:09;98734.95;;;28.74;44.26
58662;BME280;44432;49.786;22.760;2023-07-29T12:08:39;98741.06;;;28.76;44.01
58662;BME280;44432;49.786;22.760;2023-07-29T12:11:11;98736.09;;;28.76;43.60
58662;BME280;44432;49.786;22.760;2023-07-29T12:13:42;98735.50;;;28.74;43.20
58662;BME280;44432;49.786;22.760;2023-07-29T12:16:17;98741.36;;;28.80;43.33
58662;BME280;44432;49.786;22.760;2023-07-29T12:18:49;98742.55;;;28.86;43.17
58662;BME280;44432;49.786;22.760;2023-07-29T12:21:20;98737.98;;;28.95;42.97
58662;BME280;44432;49.786;22.760;2023-07-29T12:23:52;98737.19;;;29.04;42.68
58662;BME280;44432;49.786;22.760;2023-07-29T12:26:28;98733.02;;;29.08;42.99
58662;BME280;44432;49.786;22.760;2023-07-29T12:28:59;98736.64;;;29.09;43.01
58662;BME280;44432;49.786;22.760;2023-07-29T12:31:33;98734.30;;;28.95;42.58
58662;BME280;44432;49.786;22.760;2023-07-29T12:34:08;98732.86;;;28.96;43.44
58662;BME280;44432;49.786;22.760;2023-07-29T12:36:46;98734.84;;;29.03;43.07
58662;BME280;44432;49.786;22.760;2023-07-29T12:39:23;98740.61;;;29.04;43.15
58662;BME280;44432;49.786;22.760;2023-07-29T12:41:55;98738.05;;;29.01;42.73
58662;BME280;44432;49.786;22.760;2023-07-29T12:44:27;98732.70;;;28.93;43.06
58662;BME280;44432;49.786;22.760;2023-07-29T12:46:57;98741.90;;;28.88;42.90
58662;BME280;44432;49.786;22.760;2023-07-29T12:49:28;98741.35;;;28.81;42.73
58662;BME280;44432;49.786;22.760;2023-07-29T12:51:59;98736.09;;;28.76;42.97
58662;BME280;44432;49.786;22.760;2023-07-29T12:54:30;98739.02;;;28.67;43.10
58662;BME280;44432;49.786;22.760;2023-07-29T12:57:00;98739.48;;;28.64;43.59
58662;BME280;44432;49.786;22.760;2023-07-29T12:59:31;98739.55;;;28.61;43.44
58662;BME280;44432;49.786;22.760;2023-07-29T13:02:02;98738.50;;;28.57;43.75
58662;BME280;44432;49.786;22.760;2023-07-29T13:04:32;98738.00;;;28.58;43.66
58662;BME280;44432;49.786;22.760;2023-07-29T13:07:03;98734.92;;;28.59;43.43
58662;BME280;44432;49.786;22.760;2023-07-29T13:09:34;98735.86;;;28.57;43.59
58662;BME280;44432;49.786;22.760;2023-07-29T13:12:06;98733.20;;;28.51;43.79